Database: COMPET-N - COOP - 3PL - 4PL - CNDOOM

WAD: Doom | Doom 2 | TNT | Plutonia | AV | HR | Scythe | MM | MM2 | Requiem | CE
Category: speed | nmare | max | nm100s | tyson | pacifist | fast | respawn | nomo | misc | built | all
Highscore: ALL | IWAD | PWAD | Country | Continent

Remove: wad | map | category | player | all
MapPlayerTimeDateFilenameCommentsDL
Alien Vendetta - Ultra Violence Speed
MAP03: Cargo DepotJakub Machata1:29.002003-06-30av03-129.zip - 272
MAP03: Cargo DepotJakub Machata1:31.002003-05-02av03-131.zip - 303
MAP03: Cargo DepotJakub Machata1:39.002003-03-20av03-139.zip - 277
MAP03: Cargo DepotJakub Machata1:41.002003-02-02av03-141.zip - 281
MAP03: Cargo DepotJakub Machata1:43.002003-02-01av03-143.zip - 281
MAP03: Cargo DepotJakub Machata1:47.002003-01-24av03-147.zip - 268
MAP03: Cargo DepotJakub Machata1:59.002003-01-13av03-159.zip - 261
MAP03: Cargo DepotJakub Machata2:14.002002-12-30av03-214.zip - 230
MAP04: SeclusionJakub Machata1:43.002003-06-30av04-143.zip - 294
MAP04: SeclusionJakub Machata1:49.002003-04-08av04-149.zip - 290
MAP04: SeclusionJakub Machata1:54.002003-04-05av04-154.zip - 301
MAP04: SeclusionJakub Machata1:56.002003-01-24av04-156.zip - 285
MAP04: SeclusionJakub Machata2:04.002003-01-13av04-204.zip - 287
MAP04: SeclusionJakub Machata2:21.002003-01-12av04-221.zip - 276
MAP16: Mutual DestructionJakub Machata5:22.002003-07-02av16-522.zip - 255
MAP16: Mutual DestructionJakub Machata5:31.002003-06-30av16-531.zip - 259
MAP30: Point DreadfulJakub Machata59.002003-08-13av30-059.zip - 262
MAP30: Point DreadfulJakub Machata1:00.002003-08-10av30-100.zip - 259
MAP30: Point DreadfulJakub Machata1:01.002003-08-10av30-101.zip - 257
Alien Vendetta - Nightmare Speed
MAP30: Point DreadfulJakub Machata59.002003-08-10an30-059.zip - 424
Alien Vendetta - Ultra Violence Max
MAP02: Rusty RageJakub Machata2:43.002003-01-24av02-243.zip - 311
MAP02: Rusty RageJakub Machata2:44.002003-01-24av02-244.zip - 303
MAP03: Cargo DepotJakub Machata3:22.002003-02-01av03-322.zip - 271
MAP03: Cargo DepotJakub Machata3:38.002003-01-24av03-338.zip - 273
MAP03: Cargo DepotJakub Machata3:55.002003-01-12av03-355.zip - 289
MAP04: SeclusionJakub Machata5:34.002003-01-12av04-534.zip - 284
MAP30: Point DreadfulJakub Machata59.002003-08-13av30-059.zip - 243
MAP30: Point DreadfulJakub Machata1:00.002003-08-10av30-100.zip - 273
MAP30: Point DreadfulJakub Machata1:01.002003-08-10av30-101.zip - 258
MAP30: Point DreadfulJakub Machata1:02.002003-07-26av30-102.zip - 252
Alien Vendetta - Ultra Violence Tyson
MAP04: SeclusionJakub Machata13:33.002003-06-29at041333.zip - 278
MAP04: SeclusionJakub Machata17:00.002003-05-02at041700.zip - 297
Alien Vendetta - Ultra Violence Fast
MAP03: Cargo DepotJakub Machata4:42.002003-05-01af03-442.zip - 292
MAP03: Cargo DepotJakub Machata4:51.002003-02-03af03-451.zip - 273
MAP04: SeclusionJakub Machata5:47.002003-03-08af04-547.zip - 277
MAP04: SeclusionJakub Machata6:23.002003-02-28af04-623.zip - 291
MAP04: SeclusionJakub Machata7:44.002003-02-03af04-744.zip - 289
Alien Vendetta - Ultra Violence Respawn
MAP03: Cargo DepotJakub Machata2:32.002003-07-01ar03-232.zip - 433
MAP03: Cargo DepotJakub Machata2:44.002003-04-26ar03-244.zip - 308
MAP03: Cargo DepotJakub Machata2:49.002003-04-14ar03-249.zip - 283
MAP03: Cargo DepotJakub Machata3:28.002003-04-07ar03-328.zip - 282
MAP04: SeclusionJakub Machata3:44.002003-04-26ar04-344.zip - 419
MAP04: SeclusionJakub Machata3:50.002003-04-14ar04-350.zip - 290
MAP04: SeclusionJakub Machata5:06.002003-04-06ar04-506.zip - 309
Remove: wad | map | category | player | all